sensor_id;sensor_type;location;lat;lon;timestamp;P1;durP1;ratioP1;P2;durP2;ratioP2
26578;SDS011;14227;47.674;19.320;2023-07-13T00:00:40;17.40;;;8.43;;
26578;SDS011;14227;47.674;19.320;2023-07-13T00:03:06;15.05;;;8.95;;
26578;SDS011;14227;47.674;19.320;2023-07-13T00:05:32;26.90;;;8.90;;
26578;SDS011;14227;47.674;19.320;2023-07-13T00:07:58;23.10;;;8.88;;
26578;SDS011;14227;47.674;19.320;2023-07-13T00:10:24;16.33;;;9.15;;
26578;SDS011;14227;47.674;19.320;2023-07-13T00:12:51;31.83;;;10.52;;
26578;SDS011;14227;47.674;19.320;2023-07-13T00:15:21;43.20;;;11.23;;
26578;SDS011;14227;47.674;19.320;2023-07-13T00:17:51;29.90;;;12.48;;
26578;SDS011;14227;47.674;19.320;2023-07-13T00:20:20;76.70;;;16.88;;
26578;SDS011;14227;47.674;19.320;2023-07-13T00:22:47;41.95;;;16.58;;
26578;SDS011;14227;47.674;19.320;2023-07-13T00:25:14;73.93;;;17.98;;
26578;SDS011;14227;47.674;19.320;2023-07-13T00:27:41;48.97;;;14.68;;
26578;SDS011;14227;47.674;19.320;2023-07-13T00:30:08;42.13;;;16.25;;
26578;SDS011;14227;47.674;19.320;2023-07-13T00:32:35;89.00;;;23.58;;
26578;SDS011;14227;47.674;19.320;2023-07-13T00:35:01;52.70;;;15.43;;
26578;SDS011;14227;47.674;19.320;2023-07-13T00:37:28;79.28;;;17.05;;
26578;SDS011;14227;47.674;19.320;2023-07-13T00:39:54;89.18;;;16.70;;
26578;SDS011;14227;47.674;19.320;2023-07-13T00:42:20;50.03;;;21.73;;
26578;SDS011;14227;47.674;19.320;2023-07-13T00:47:46;30.00;;;15.38;;
26578;SDS011;14227;47.674;19.320;2023-07-13T00:50:13;53.25;;;20.77;;
26578;SDS011;14227;47.674;19.320;2023-07-13T00:52:41;81.28;;;18.65;;
26578;SDS011;14227;47.674;19.320;2023-07-13T00:55:11;85.28;;;17.52;;
26578;SDS011;14227;47.674;19.320;2023-07-13T00:57:37;35.47;;;17.42;;
26578;SDS011;14227;47.674;19.320;2023-07-13T01:00:04;49.70;;;17.35;;
26578;SDS011;14227;47.674;19.320;2023-07-13T01:02:35;34.83;;;14.75;;
26578;SDS011;14227;47.674;19.320;2023-07-13T01:05:13;36.17;;;17.35;;
26578;SDS011;14227;47.674;19.320;2023-07-13T01:07:40;33.15;;;15.95;;
26578;SDS011;14227;47.674;19.320;2023-07-13T01:10:09;28.73;;;16.52;;
26578;SDS011;14227;47.674;19.320;2023-07-13T01:12:35;31.20;;;18.00;;
26578;SDS011;14227;47.674;19.320;2023-07-13T01:15:01;35.83;;;19.40;;
26578;SDS011;14227;47.674;19.320;2023-07-13T01:17:28;26.70;;;14.82;;
26578;SDS011;14227;47.674;19.320;2023-07-13T01:19:54;29.42;;;14.02;;
26578;SDS011;14227;47.674;19.320;2023-07-13T01:22:20;22.02;;;11.32;;
26578;SDS011;14227;47.674;19.320;2023-07-13T01:24:51;24.88;;;14.43;;
26578;SDS011;14227;47.674;19.320;2023-07-13T01:27:22;18.35;;;12.07;;
26578;SDS011;14227;47.674;19.320;2023-07-13T01:29:50;27.08;;;14.13;;
26578;SDS011;14227;47.674;19.320;2023-07-13T01:32:18;24.67;;;13.77;;
26578;SDS011;14227;47.674;19.320;2023-07-13T01:34:48;30.25;;;12.77;;
26578;SDS011;14227;47.674;19.320;2023-07-13T01:37:14;35.03;;;15.27;;
26578;SDS011;14227;47.674;19.320;2023-07-13T01:39:40;24.85;;;14.10;;
26578;SDS011;14227;47.674;19.320;2023-07-13T01:42:06;23.00;;;11.65;;
26578;SDS011;14227;47.674;19.320;2023-07-13T01:44:32;28.50;;;14.85;;
26578;SDS011;14227;47.674;19.320;2023-07-13T01:46:57;36.00;;;16.58;;
26578;SDS011;14227;47.674;19.320;2023-07-13T01:49:23;46.78;;;19.92;;
26578;SDS011;14227;47.674;19.320;2023-07-13T01:51:49;28.35;;;13.75;;
26578;SDS011;14227;47.674;19.320;2023-07-13T01:54:14;41.08;;;19.42;;
26578;SDS011;14227;47.674;19.320;2023-07-13T01:56:40;32.03;;;17.65;;
26578;SDS011;14227;47.674;19.320;2023-07-13T01:59:07;33.83;;;17.33;;
26578;SDS011;14227;47.674;19.320;2023-07-13T02:01:33;31.15;;;15.80;;
26578;SDS011;14227;47.674;19.320;2023-07-13T02:03:58;27.10;;;14.35;;
26578;SDS011;14227;47.674;19.320;2023-07-13T02:06:24;34.40;;;17.58;;
26578;SDS011;14227;47.674;19.320;2023-07-13T02:08:50;35.53;;;18.77;;
26578;SDS011;14227;47.674;19.320;2023-07-13T02:11:16;58.40;;;23.02;;
26578;SDS011;14227;47.674;19.320;2023-07-13T02:13:42;44.58;;;20.13;;
26578;SDS011;14227;47.674;19.320;2023-07-13T02:16:08;36.83;;;19.80;;
26578;SDS011;14227;47.674;19.320;2023-07-13T02:18:34;50.58;;;22.73;;
26578;SDS011;14227;47.674;19.320;2023-07-13T02:21:00;40.65;;;20.25;;
26578;SDS011;14227;47.674;19.320;2023-07-13T02:23:25;35.92;;;18.95;;
26578;SDS011;14227;47.674;19.320;2023-07-13T02:25:55;41.17;;;20.38;;
26578;SDS011;14227;47.674;19.320;2023-07-13T02:28:21;28.33;;;15.95;;
26578;SDS011;14227;47.674;19.320;2023-07-13T02:30:47;29.60;;;15.77;;
26578;SDS011;14227;47.674;19.320;2023-07-13T02:33:12;31.85;;;15.35;;
26578;SDS011;14227;47.674;19.320;2023-07-13T02:35:38;27.95;;;14.25;;
26578;SDS011;14227;47.674;19.320;2023-07-13T02:38:04;38.33;;;16.63;;
26578;SDS011;14227;47.674;19.320;2023-07-13T02:40:30;36.20;;;16.58;;
26578;SDS011;14227;47.674;19.320;2023-07-13T02:42:58;26.13;;;12.50;;
26578;SDS011;14227;47.674;19.320;2023-07-13T02:45:24;24.48;;;12.55;;
26578;SDS011;14227;47.674;19.320;2023-07-13T02:47:50;32.42;;;15.93;;
26578;SDS011;14227;47.674;19.320;2023-07-13T02:50:16;61.80;;;22.92;;
26578;SDS011;14227;47.674;19.320;2023-07-13T02:52:41;29.85;;;14.48;;
26578;SDS011;14227;47.674;19.320;2023-07-13T02:55:07;31.42;;;16.75;;
26578;SDS011;14227;47.674;19.320;2023-07-13T02:57:33;32.88;;;16.15;;
26578;SDS011;14227;47.674;19.320;2023-07-13T02:59:59;27.65;;;14.95;;
26578;SDS011;14227;47.674;19.320;2023-07-13T03:02:25;37.45;;;18.05;;
26578;SDS011;14227;47.674;19.320;2023-07-13T03:04:53;54.92;;;20.42;;
26578;SDS011;14227;47.674;19.320;2023-07-13T03:07:20;52.53;;;21.23;;
26578;SDS011;14227;47.674;19.320;2023-07-13T03:09:45;46.13;;;20.30;;
26578;SDS011;14227;47.674;19.320;2023-07-13T03:12:11;45.15;;;21.35;;
26578;SDS011;14227;47.674;19.320;2023-07-13T03:14:37;33.85;;;18.05;;
26578;SDS011;14227;47.674;19.320;2023-07-13T03:17:02;46.92;;;23.17;;
26578;SDS011;14227;47.674;19.320;2023-07-13T03:19:28;44.85;;;23.10;;
26578;SDS011;14227;47.674;19.320;2023-07-13T03:21:54;43.95;;;21.13;;
26578;SDS011;14227;47.674;19.320;2023-07-13T03:24:20;43.42;;;20.67;;
26578;SDS011;14227;47.674;19.320;2023-07-13T03:26:48;30.92;;;16.70;;
26578;SDS011;14227;47.674;19.320;2023-07-13T03:29:14;47.22;;;19.67;;
26578;SDS011;14227;47.674;19.320;2023-07-13T03:31:40;56.03;;;25.83;;
26578;SDS011;14227;47.674;19.320;2023-07-13T03:34:05;43.17;;;19.42;;
26578;SDS011;14227;47.674;19.320;2023-07-13T03:36:31;30.13;;;16.45;;
26578;SDS011;14227;47.674;19.320;2023-07-13T03:39:00;32.50;;;18.92;;
26578;SDS011;14227;47.674;19.320;2023-07-13T03:41:28;33.03;;;17.55;;
26578;SDS011;14227;47.674;19.320;2023-07-13T03:43:53;46.28;;;24.00;;
26578;SDS011;14227;47.674;19.320;2023-07-13T03:46:20;31.58;;;15.93;;
26578;SDS011;14227;47.674;19.320;2023-07-13T03:48:46;33.25;;;18.27;;
26578;SDS011;14227;47.674;19.320;2023-07-13T03:51:13;35.65;;;18.85;;
26578;SDS011;14227;47.674;19.320;2023-07-13T03:53:41;32.63;;;16.42;;
26578;SDS011;14227;47.674;19.320;2023-07-13T03:56:08;25.65;;;12.57;;
26578;SDS011;14227;47.674;19.320;2023-07-13T03:58:36;31.65;;;17.13;;
26578;SDS011;14227;47.674;19.320;2023-07-13T04:01:04;34.88;;;18.35;;
26578;SDS011;14227;47.674;19.320;2023-07-13T04:03:32;35.40;;;19.75;;
26578;SDS011;14227;47.674;19.320;2023-07-13T04:05:58;25.27;;;13.35;;
26578;SDS011;14227;47.674;19.320;2023-07-13T04:08:29;17.65;;;10.93;;
26578;SDS011;14227;47.674;19.320;2023-07-13T04:10:57;20.23;;;11.50;;
26578;SDS011;14227;47.674;19.320;2023-07-13T04:13:23;20.02;;;12.75;;
26578;SDS011;14227;47.674;19.320;2023-07-13T04:15:50;19.48;;;11.25;;
26578;SDS011;14227;47.674;19.320;2023-07-13T04:18:16;20.35;;;13.20;;
26578;SDS011;14227;47.674;19.320;2023-07-13T04:20:43;36.47;;;19.02;;
26578;SDS011;14227;47.674;19.320;2023-07-13T04:23:08;27.67;;;14.52;;
26578;SDS011;14227;47.674;19.320;2023-07-13T04:25:34;26.30;;;14.70;;
26578;SDS011;14227;47.674;19.320;2023-07-13T04:28:00;23.77;;;14.73;;
26578;SDS011;14227;47.674;19.320;2023-07-13T04:30:26;33.08;;;15.65;;
26578;SDS011;14227;47.674;19.320;2023-07-13T04:32:51;24.17;;;14.35;;
26578;SDS011;14227;47.674;19.320;2023-07-13T04:35:21;20.80;;;10.77;;
26578;SDS011;14227;47.674;19.320;2023-07-13T04:37:50;23.60;;;13.45;;
26578;SDS011;14227;47.674;19.320;2023-07-13T04:40:18;23.73;;;14.55;;
26578;SDS011;14227;47.674;19.320;2023-07-13T04:42:45;21.23;;;12.43;;
26578;SDS011;14227;47.674;19.320;2023-07-13T04:45:11;24.13;;;14.35;;
26578;SDS011;14227;47.674;19.320;2023-07-13T04:47:38;21.92;;;10.88;;
26578;SDS011;14227;47.674;19.320;2023-07-13T04:50:04;20.50;;;10.88;;
26578;SDS011;14227;47.674;19.320;2023-07-13T04:52:30;17.73;;;11.02;;
26578;SDS011;14227;47.674;19.320;2023-07-13T04:54:56;179.07;;;22.70;;
26578;SDS011;14227;47.674;19.320;2023-07-13T04:57:22;19.33;;;9.90;;
26578;SDS011;14227;47.674;19.320;2023-07-13T04:59:48;28.20;;;14.18;;
26578;SDS011;14227;47.674;19.320;2023-07-13T05:02:13;29.95;;;14.60;;
26578;SDS011;14227;47.674;19.320;2023-07-13T05:04:39;31.35;;;14.80;;
26578;SDS011;14227;47.674;19.320;2023-07-13T05:07:05;43.08;;;16.35;;
26578;SDS011;14227;47.674;19.320;2023-07-13T05:09:31;28.08;;;15.07;;
26578;SDS011;14227;47.674;19.320;2023-07-13T05:11:57;30.75;;;15.93;;
26578;SDS011;14227;47.674;19.320;2023-07-13T05:14:22;32.08;;;15.35;;
26578;SDS011;14227;47.674;19.320;2023-07-13T05:16:48;31.63;;;17.27;;
26578;SDS011;14227;47.674;19.320;2023-07-13T05:19:14;32.75;;;16.55;;
26578;SDS011;14227;47.674;19.320;2023-07-13T05:21:39;31.70;;;14.38;;
26578;SDS011;14227;47.674;19.320;2023-07-13T05:24:06;38.65;;;18.05;;
26578;SDS011;14227;47.674;19.320;2023-07-13T05:26:32;36.45;;;15.40;;
26578;SDS011;14227;47.674;19.320;2023-07-13T05:28:57;35.30;;;15.77;;
26578;SDS011;14227;47.674;19.320;2023-07-13T05:31:23;50.67;;;16.45;;
26578;SDS011;14227;47.674;19.320;2023-07-13T05:33:49;46.03;;;18.45;;
26578;SDS011;14227;47.674;19.320;2023-07-13T05:36:15;51.15;;;18.13;;
26578;SDS011;14227;47.674;19.320;2023-07-13T05:38:40;65.00;;;19.30;;
26578;SDS011;14227;47.674;19.320;2023-07-13T05:41:06;100.25;;;19.80;;
26578;SDS011;14227;47.674;19.320;2023-07-13T05:43:32;46.80;;;17.92;;
26578;SDS011;14227;47.674;19.320;2023-07-13T05:45:58;36.25;;;13.00;;
26578;SDS011;14227;47.674;19.320;2023-07-13T05:48:24;22.50;;;11.05;;
26578;SDS011;14227;47.674;19.320;2023-07-13T05:50:50;40.38;;;14.93;;
26578;SDS011;14227;47.674;19.320;2023-07-13T05:53:16;25.63;;;12.77;;
26578;SDS011;14227;47.674;19.320;2023-07-13T05:55:45;27.85;;;14.23;;
26578;SDS011;14227;47.674;19.320;2023-07-13T05:58:16;48.97;;;16.58;;
26578;SDS011;14227;47.674;19.320;2023-07-13T06:00:42;56.80;;;18.17;;
26578;SDS011;14227;47.674;19.320;2023-07-13T06:03:08;46.80;;;17.08;;
26578;SDS011;14227;47.674;19.320;2023-07-13T06:05:34;78.47;;;20.02;;
26578;SDS011;14227;47.674;19.320;2023-07-13T06:08:01;49.00;;;14.65;;
26578;SDS011;14227;47.674;19.320;2023-07-13T06:10:28;32.38;;;12.52;;
26578;SDS011;14227;47.674;19.320;2023-07-13T06:12:53;68.25;;;11.60;;
26578;SDS011;14227;47.674;19.320;2023-07-13T06:15:19;63.30;;;11.20;;
26578;SDS011;14227;47.674;19.320;2023-07-13T06:17:45;66.68;;;11.90;;
26578;SDS011;14227;47.674;19.320;2023-07-13T06:20:10;42.53;;;9.38;;
26578;SDS011;14227;47.674;19.320;2023-07-13T06:22:36;69.68;;;9.85;;
26578;SDS011;14227;47.674;19.320;2023-07-13T06:25:02;60.25;;;10.43;;
26578;SDS011;14227;47.674;19.320;2023-07-13T06:27:28;72.13;;;8.30;;
26578;SDS011;14227;47.674;19.320;2023-07-13T06:29:53;70.10;;;9.65;;
26578;SDS011;14227;47.674;19.320;2023-07-13T06:32:19;58.58;;;8.85;;
26578;SDS011;14227;47.674;19.320;2023-07-13T06:34:45;37.90;;;7.68;;
26578;SDS011;14227;47.674;19.320;2023-07-13T06:37:14;33.08;;;7.38;;
26578;SDS011;14227;47.674;19.320;2023-07-13T06:39:40;19.73;;;7.78;;
26578;SDS011;14227;47.674;19.320;2023-07-13T06:42:05;21.90;;;8.18;;
26578;SDS011;14227;47.674;19.320;2023-07-13T06:44:31;29.63;;;11.68;;
26578;SDS011;14227;47.674;19.320;2023-07-13T06:46:57;13.77;;;8.38;;
26578;SDS011;14227;47.674;19.320;2023-07-13T06:49:23;13.30;;;8.55;;
26578;SDS011;14227;47.674;19.320;2023-07-13T06:51:48;16.48;;;11.55;;
26578;SDS011;14227;47.674;19.320;2023-07-13T06:54:14;12.00;;;8.65;;
26578;SDS011;14227;47.674;19.320;2023-07-13T06:56:39;14.85;;;9.93;;
26578;SDS011;14227;47.674;19.320;2023-07-13T06:59:05;10.23;;;7.47;;
26578;SDS011;14227;47.674;19.320;2023-07-13T07:01:31;14.32;;;7.90;;
26578;SDS011;14227;47.674;19.320;2023-07-13T07:03:56;9.50;;;5.32;;
26578;SDS011;14227;47.674;19.320;2023-07-13T07:06:22;10.63;;;7.38;;
26578;SDS011;14227;47.674;19.320;2023-07-13T07:08:49;8.70;;;6.20;;
26578;SDS011;14227;47.674;19.320;2023-07-13T07:11:19;15.38;;;9.15;;
26578;SDS011;14227;47.674;19.320;2023-07-13T07:13:50;14.82;;;10.07;;
26578;SDS011;14227;47.674;19.320;2023-07-13T07:16:17;14.00;;;8.18;;
26578;SDS011;14227;47.674;19.320;2023-07-13T07:18:43;14.27;;;8.55;;
26578;SDS011;14227;47.674;19.320;2023-07-13T07:21:09;10.98;;;6.45;;
26578;SDS011;14227;47.674;19.320;2023-07-13T07:23:35;8.70;;;5.68;;
26578;SDS011;14227;47.674;19.320;2023-07-13T07:26:01;12.98;;;7.00;;
26578;SDS011;14227;47.674;19.320;2023-07-13T07:28:28;233.32;;;36.28;;
26578;SDS011;14227;47.674;19.320;2023-07-13T07:30:55;42.45;;;12.77;;
26578;SDS011;14227;47.674;19.320;2023-07-13T07:33:22;15.23;;;6.63;;
26578;SDS011;14227;47.674;19.320;2023-07-13T07:35:48;13.13;;;5.90;;
26578;SDS011;14227;47.674;19.320;2023-07-13T07:38:14;181.38;;;22.50;;
26578;SDS011;14227;47.674;19.320;2023-07-13T07:40:40;99.03;;;16.50;;
26578;SDS011;14227;47.674;19.320;2023-07-13T07:43:10;98.32;;;15.40;;
26578;SDS011;14227;47.674;19.320;2023-07-13T07:45:38;63.70;;;11.45;;
26578;SDS011;14227;47.674;19.320;2023-07-13T07:48:05;48.85;;;8.90;;
26578;SDS011;14227;47.674;19.320;2023-07-13T07:50:31;6.97;;;4.60;;
26578;SDS011;14227;47.674;19.320;2023-07-13T07:53:00;8.30;;;3.85;;
26578;SDS011;14227;47.674;19.320;2023-07-13T07:55:27;6.78;;;3.97;;
26578;SDS011;14227;47.674;19.320;2023-07-13T07:57:53;6.03;;;3.50;;
26578;SDS011;14227;47.674;19.320;2023-07-13T08:00:19;5.25;;;3.03;;
26578;SDS011;14227;47.674;19.320;2023-07-13T08:02:45;8.63;;;3.00;;
26578;SDS011;14227;47.674;19.320;2023-07-13T08:05:13;7.40;;;3.05;;
26578;SDS011;14227;47.674;19.320;2023-07-13T08:07:40;3.80;;;2.38;;
26578;SDS011;14227;47.674;19.320;2023-07-13T08:10:07;5.65;;;2.60;;
26578;SDS011;14227;47.674;19.320;2023-07-13T08:12:39;4.95;;;2.58;;
26578;SDS011;14227;47.674;19.320;2023-07-13T08:15:09;5.93;;;2.50;;
26578;SDS011;14227;47.674;19.320;2023-07-13T08:17:41;4.35;;;2.58;;
26578;SDS011;14227;47.674;19.320;2023-07-13T08:20:09;8.90;;;2.47;;
26578;SDS011;14227;47.674;19.320;2023-07-13T08:22:35;4.15;;;2.28;;
26578;SDS011;14227;47.674;19.320;2023-07-13T08:25:01;5.15;;;2.50;;
26578;SDS011;14227;47.674;19.320;2023-07-13T08:27:27;5.32;;;2.30;;
26578;SDS011;14227;47.674;19.320;2023-07-13T08:29:53;3.63;;;2.10;;
26578;SDS011;14227;47.674;19.320;2023-07-13T08:32:22;4.78;;;2.38;;
26578;SDS011;14227;47.674;19.320;2023-07-13T08:34:49;6.18;;;2.33;;
26578;SDS011;14227;47.674;19.320;2023-07-13T08:37:18;7.43;;;2.70;;
26578;SDS011;14227;47.674;19.320;2023-07-13T08:39:47;4.63;;;2.60;;
26578;SDS011;14227;47.674;19.320;2023-07-13T08:47:57;4.78;;;2.10;;
26578;SDS011;14227;47.674;19.320;2023-07-13T08:53:38;4.57;;;1.98;;
26578;SDS011;14227;47.674;19.320;2023-07-13T08:56:20;6.32;;;2.72;;
26578;SDS011;14227;47.674;19.320;2023-07-13T08:58:50;5.75;;;2.25;;
26578;SDS011;14227;47.674;19.320;2023-07-13T09:04:25;4.82;;;2.38;;
26578;SDS011;14227;47.674;19.320;2023-07-13T09:07:10;6.30;;;2.45;;
26578;SDS011;14227;47.674;19.320;2023-07-13T09:12:38;3.30;;;1.88;;
26578;SDS011;14227;47.674;19.320;2023-07-13T09:17:56;4.20;;;2.45;;
26578;SDS011;14227;47.674;19.320;2023-07-13T09:20:48;5.75;;;2.53;;
26578;SDS011;14227;47.674;19.320;2023-07-13T09:23:20;7.45;;;2.95;;
26578;SDS011;14227;47.674;19.320;2023-07-13T09:25:47;4.65;;;2.25;;
26578;SDS011;14227;47.674;19.320;2023-07-13T09:28:24;3.58;;;1.90;;
26578;SDS011;14227;47.674;19.320;2023-07-13T09:30:56;4.43;;;2.03;;
26578;SDS011;14227;47.674;19.320;2023-07-13T09:33:29;4.82;;;2.30;;
26578;SDS011;14227;47.674;19.320;2023-07-13T09:35:59;3.47;;;2.00;;
26578;SDS011;14227;47.674;19.320;2023-07-13T09:38:29;3.20;;;1.83;;
26578;SDS011;14227;47.674;19.320;2023-07-13T09:41:11;5.82;;;1.95;;
26578;SDS011;14227;47.674;19.320;2023-07-13T09:44:01;4.95;;;1.98;;
26578;SDS011;14227;47.674;19.320;2023-07-13T09:46:34;9.00;;;2.00;;
26578;SDS011;14227;47.674;19.320;2023-07-13T09:49:00;5.63;;;2.15;;
26578;SDS011;14227;47.674;19.320;2023-07-13T09:51:25;6.25;;;2.00;;
26578;SDS011;14227;47.674;19.320;2023-07-13T09:53:51;10.98;;;2.38;;
26578;SDS011;14227;47.674;19.320;2023-07-13T09:56:25;6.00;;;2.10;;
26578;SDS011;14227;47.674;19.320;2023-07-13T09:58:53;3.55;;;1.80;;
26578;SDS011;14227;47.674;19.320;2023-07-13T10:01:32;7.75;;;2.35;;
26578;SDS011;14227;47.674;19.320;2023-07-13T10:04:10;2.83;;;1.83;;
26578;SDS011;14227;47.674;19.320;2023-07-13T10:06:41;4.50;;;1.92;;
26578;SDS011;14227;47.674;19.320;2023-07-13T10:09:08;6.18;;;2.08;;
26578;SDS011;14227;47.674;19.320;2023-07-13T10:11:35;4.82;;;1.92;;
26578;SDS011;14227;47.674;19.320;2023-07-13T10:14:07;5.25;;;1.80;;
26578;SDS011;14227;47.674;19.320;2023-07-13T10:16:39;3.55;;;2.10;;
26578;SDS011;14227;47.674;19.320;2023-07-13T10:21:53;5.50;;;2.15;;
26578;SDS011;14227;47.674;19.320;2023-07-13T10:24:22;3.53;;;2.38;;
26578;SDS011;14227;47.674;19.320;2023-07-13T10:27:09;8.60;;;2.67;;
26578;SDS011;14227;47.674;19.320;2023-07-13T10:32:38;2.97;;;2.15;;
26578;SDS011;14227;47.674;19.320;2023-07-13T10:35:04;3.25;;;2.08;;
26578;SDS011;14227;47.674;19.320;2023-07-13T10:37:40;7.50;;;2.33;;
26578;SDS011;14227;47.674;19.320;2023-07-13T10:40:39;6.85;;;2.47;;
26578;SDS011;14227;47.674;19.320;2023-07-13T10:43:15;5.05;;;2.10;;
26578;SDS011;14227;47.674;19.320;2023-07-13T10:45:49;5.35;;;2.42;;
26578;SDS011;14227;47.674;19.320;2023-07-13T10:48:16;3.55;;;2.20;;
26578;SDS011;14227;47.674;19.320;2023-07-13T10:50:43;6.25;;;2.30;;
26578;SDS011;14227;47.674;19.320;2023-07-13T10:58:40;5.63;;;2.33;;
26578;SDS011;14227;47.674;19.320;2023-07-13T11:01:09;5.65;;;2.35;;
26578;SDS011;14227;47.674;19.320;2023-07-13T11:18:50;6.47;;;2.20;;
26578;SDS011;14227;47.674;19.320;2023-07-13T11:31:57;6.40;;;2.00;;
26578;SDS011;14227;47.674;19.320;2023-07-13T11:34:27;6.38;;;2.28;;
26578;SDS011;14227;47.674;19.320;2023-07-13T11:36:56;5.80;;;2.33;;
26578;SDS011;14227;47.674;19.320;2023-07-13T11:41:53;3.13;;;1.98;;
26578;SDS011;14227;47.674;19.320;2023-07-13T11:44:22;3.13;;;1.80;;
26578;SDS011;14227;47.674;19.320;2023-07-13T11:46:54;5.40;;;2.20;;
26578;SDS011;14227;47.674;19.320;2023-07-13T11:49:26;4.82;;;2.00;;
26578;SDS011;14227;47.674;19.320;2023-07-13T11:51:54;3.58;;;2.05;;
26578;SDS011;14227;47.674;19.320;2023-07-13T11:56:51;2.13;;;1.60;;
26578;SDS011;14227;47.674;19.320;2023-07-13T11:59:18;2.95;;;1.67;;
26578;SDS011;14227;47.674;19.320;2023-07-13T12:01:49;2.45;;;1.80;;
26578;SDS011;14227;47.674;19.320;2023-07-13T12:04:36;3.08;;;1.88;;
26578;SDS011;14227;47.674;19.320;2023-07-13T12:07:07;4.22;;;1.98;;
26578;SDS011;14227;47.674;19.320;2023-07-13T12:09:40;3.17;;;1.52;;
26578;SDS011;14227;47.674;19.320;2023-07-13T12:12:28;5.70;;;1.80;;
26578;SDS011;14227;47.674;19.320;2023-07-13T12:14:54;3.63;;;1.50;;
26578;SDS011;14227;47.674;19.320;2023-07-13T12:17:20;4.88;;;1.80;;
26578;SDS011;14227;47.674;19.320;2023-07-13T12:19:51;4.32;;;1.50;;
26578;SDS011;14227;47.674;19.320;2023-07-13T12:22:18;3.67;;;1.50;;
26578;SDS011;14227;47.674;19.320;2023-07-13T12:24:45;2.15;;;1.20;;
26578;SDS011;14227;47.674;19.320;2023-07-13T12:27:25;3.15;;;1.50;;
26578;SDS011;14227;47.674;19.320;2023-07-13T12:30:00;3.92;;;1.80;;
26578;SDS011;14227;47.674;19.320;2023-07-13T12:32:27;1.90;;;1.70;;
26578;SDS011;14227;47.674;19.320;2023-07-13T12:35:03;3.22;;;1.58;;
26578;SDS011;14227;47.674;19.320;2023-07-13T12:37:47;3.33;;;1.77;;
26578;SDS011;14227;47.674;19.320;2023-07-13T12:40:14;2.17;;;1.60;;
26578;SDS011;14227;47.674;19.320;2023-07-13T12:42:43;1.83;;;1.70;;
26578;SDS011;14227;47.674;19.320;2023-07-13T12:47:47;5.18;;;2.20;;
26578;SDS011;14227;47.674;19.320;2023-07-13T12:50:16;2.13;;;1.70;;
26578;SDS011;14227;47.674;19.320;2023-07-13T12:52:50;5.07;;;1.95;;
26578;SDS011;14227;47.674;19.320;2023-07-13T12:55:20;2.35;;;1.80;;
26578;SDS011;14227;47.674;19.320;2023-07-13T12:57:54;3.25;;;1.90;;
26578;SDS011;14227;47.674;19.320;2023-07-13T13:00:30;5.28;;;2.25;;
26578;SDS011;14227;47.674;19.320;2023-07-13T13:03:00;3.85;;;2.10;;
26578;SDS011;14227;47.674;19.320;2023-07-13T13:08:08;4.07;;;1.77;;
26578;SDS011;14227;47.674;19.320;2023-07-13T13:10:37;3.38;;;1.90;;
26578;SDS011;14227;47.674;19.320;2023-07-13T13:13:02;3.15;;;2.10;;
26578;SDS011;14227;47.674;19.320;2023-07-13T13:15:28;3.72;;;1.75;;
26578;SDS011;14227;47.674;19.320;2023-07-13T13:17:55;2.00;;;1.80;;
26578;SDS011;14227;47.674;19.320;2023-07-13T13:20:23;5.03;;;1.90;;
26578;SDS011;14227;47.674;19.320;2023-07-13T13:22:51;3.65;;;1.92;;
26578;SDS011;14227;47.674;19.320;2023-07-13T13:25:17;4.13;;;2.20;;
26578;SDS011;14227;47.674;19.320;2023-07-13T13:27:44;2.67;;;1.92;;
26578;SDS011;14227;47.674;19.320;2023-07-13T13:30:11;4.10;;;1.90;;
26578;SDS011;14227;47.674;19.320;2023-07-13T13:32:40;5.45;;;2.33;;
26578;SDS011;14227;47.674;19.320;2023-07-13T13:35:11;2.92;;;2.00;;
26578;SDS011;14227;47.674;19.320;2023-07-13T13:37:42;4.70;;;1.90;;
26578;SDS011;14227;47.674;19.320;2023-07-13T13:42:41;2.85;;;2.10;;
26578;SDS011;14227;47.674;19.320;2023-07-13T13:45:09;5.82;;;2.10;;
26578;SDS011;14227;47.674;19.320;2023-07-13T13:47:35;7.07;;;3.00;;
26578;SDS011;14227;47.674;19.320;2023-07-13T13:50:04;8.20;;;2.63;;
26578;SDS011;14227;47.674;19.320;2023-07-13T13:52:43;4.70;;;2.22;;
26578;SDS011;14227;47.674;19.320;2023-07-13T13:55:13;2.30;;;2.10;;
26578;SDS011;14227;47.674;19.320;2023-07-13T13:57:44;4.70;;;2.00;;
26578;SDS011;14227;47.674;19.320;2023-07-13T14:00:11;5.20;;;2.50;;
26578;SDS011;14227;47.674;19.320;2023-07-13T14:02:39;2.58;;;2.20;;
26578;SDS011;14227;47.674;19.320;2023-07-13T14:05:10;5.50;;;2.80;;
26578;SDS011;14227;47.674;19.320;2023-07-13T14:07:38;5.60;;;2.75;;
26578;SDS011;14227;47.674;19.320;2023-07-13T14:10:08;3.20;;;2.53;;
26578;SDS011;14227;47.674;19.320;2023-07-13T14:12:38;5.13;;;2.35;;
26578;SDS011;14227;47.674;19.320;2023-07-13T14:15:04;5.97;;;2.50;;
26578;SDS011;14227;47.674;19.320;2023-07-13T14:17:30;5.40;;;2.22;;
26578;SDS011;14227;47.674;19.320;2023-07-13T14:19:56;3.78;;;2.35;;
26578;SDS011;14227;47.674;19.320;2023-07-13T14:22:23;6.88;;;2.90;;
26578;SDS011;14227;47.674;19.320;2023-07-13T14:24:51;6.93;;;2.50;;
26578;SDS011;14227;47.674;19.320;2023-07-13T14:27:22;3.80;;;2.50;;
26578;SDS011;14227;47.674;19.320;2023-07-13T14:29:49;3.35;;;2.25;;
26578;SDS011;14227;47.674;19.320;2023-07-13T14:32:15;5.60;;;2.90;;
26578;SDS011;14227;47.674;19.320;2023-07-13T14:34:41;4.32;;;2.60;;
26578;SDS011;14227;47.674;19.320;2023-07-13T14:37:11;3.65;;;2.45;;
26578;SDS011;14227;47.674;19.320;2023-07-13T14:39:39;4.23;;;2.33;;
26578;SDS011;14227;47.674;19.320;2023-07-13T14:42:08;5.55;;;2.78;;
26578;SDS011;14227;47.674;19.320;2023-07-13T14:44:34;4.20;;;2.30;;
26578;SDS011;14227;47.674;19.320;2023-07-13T14:47:01;3.25;;;2.47;;
26578;SDS011;14227;47.674;19.320;2023-07-13T14:49:30;6.57;;;2.70;;
26578;SDS011;14227;47.674;19.320;2023-07-13T14:52:00;5.20;;;2.60;;
26578;SDS011;14227;47.674;19.320;2023-07-13T14:54:28;5.60;;;2.67;;
26578;SDS011;14227;47.674;19.320;2023-07-13T14:56:54;5.15;;;2.20;;
26578;SDS011;14227;47.674;19.320;2023-07-13T14:59:20;6.70;;;2.67;;
26578;SDS011;14227;47.674;19.320;2023-07-13T15:01:46;4.72;;;2.40;;
26578;SDS011;14227;47.674;19.320;2023-07-13T15:04:14;5.28;;;2.40;;
26578;SDS011;14227;47.674;19.320;2023-07-13T15:06:53;2.63;;;2.40;;
26578;SDS011;14227;47.674;19.320;2023-07-13T15:09:24;6.88;;;3.00;;
26578;SDS011;14227;47.674;19.320;2023-07-13T15:11:57;4.07;;;2.60;;
26578;SDS011;14227;47.674;19.320;2023-07-13T15:14:23;8.13;;;2.60;;
26578;SDS011;14227;47.674;19.320;2023-07-13T15:16:51;6.00;;;2.40;;
26578;SDS011;14227;47.674;19.320;2023-07-13T15:19:18;4.00;;;2.50;;
26578;SDS011;14227;47.674;19.320;2023-07-13T15:21:46;7.45;;;2.63;;
26578;SDS011;14227;47.674;19.320;2023-07-13T15:24:12;5.40;;;2.65;;
26578;SDS011;14227;47.674;19.320;2023-07-13T15:26:38;6.60;;;2.67;;
26578;SDS011;14227;47.674;19.320;2023-07-13T15:29:04;3.17;;;2.42;;
26578;SDS011;14227;47.674;19.320;2023-07-13T15:31:31;4.85;;;2.70;;
26578;SDS011;14227;47.674;19.320;2023-07-13T15:33:59;3.80;;;2.50;;
26578;SDS011;14227;47.674;19.320;2023-07-13T15:36:25;3.83;;;2.33;;